Elephant Butte, NM

1:17 PM MDT on July 23, 2014 (GMT -0600)
Truth Or Consequences Municipal (KTCS) Elev 4859 ft | 33.24 °N, 107.27 °W | Change Station

Current weather conditions updated 24 minutes ago

Partly Cloudy
Partly Cloudy
88 °F
Feels Like 86 °F
N
6
Wind Variable Wind from Variable

Today is forecast to be Much Cooler than yesterday.

Today
High -- | Low -- °F
--% Chance of Precip.
Yesterday
High -- | Low -- °F
Precip. -- in
6:15 AM 8:14 PM
Waning Crescent, 9% visible
Pressure 30.01 in
Visibility 10.0 miles
Clouds Few 7500 ft
Heat Index 86 °F
Dew Point 54 °F
Humidity 31%
Rainfall 0.00 in
Snow Depth Not available.
UV 12 out of 12
Pollen 4.30 out of 12
Air Quality Not available.
Flu Activity Not available.
METAR KTCS 231853Z AUTO VRB05KT 10SM FEW075 31/12 A3029 RMK AO2 SLP161 T03110122 TSNO

More Conditions Fewer Conditions

Pressure 30.01 in
Visibility 10.0 miles
Clouds Few 7500 ft
Heat Index 86 °F
Dew Point 54 °F
Humidity 31%
Rainfall 0.00 in
Snow Depth Not available.
UV 12 out of 12
Pollen 4.30 out of 12
Air Quality Not available.
Flu Activity Not available.
METAR KTCS 231853Z AUTO VRB05KT 10SM FEW075 31/12 A3029 RMK AO2 SLP161 T03110122 TSNO

More Conditions Fewer Conditions

10-Day Weather Forecast

Almanac

Astronomy

Jul. 23, 2014 Rise Set
Actual Time 6:15 AM MDT 8:14 PM MDT
Civil Twilight 5:48 AM MDT 8:42 PM MDT
Nautical Twilight 5:14 AM MDT 9:15 PM MDT
Astronomical Twilight 4:38 AM MDT 9:51 PM MDT
Moon 3:36 AM MDT 5:47 PM MDT
Length of Visible Light 14h 54m
Length of Day
13h 58m
Tomorrow will be 1m 18s shorter.
Waning Crescent, 9% of the Moon is Illuminated
Today
Waning Crescent
Jul 26
New
Aug 3
First Quarter
Aug 10
Full
Aug 17
Last Quarter

Today's Extremes

State Highs State Lows

Community

WunderPhotos

Upload Photos

1,736,718 photos uploaded!

Nearby

Snow Depth

Station Depth Elevation
Silver Creek Divide 0 in 9000 ft
Sierra Blanca 1 in 10280 ft
Santa Fe 0 in 11445 ft
Wesner Springs 0 in 11120 ft

Earthquake Activity

City Distance Mag. Time & Date
Lordsburg, New Mexico 114 miles 3.0 3:12 AM MDT
2014-07-17
Minimum magnitude displayed is 2.5.

Coastal Water Temperatures

Place Temperature
No Stations Reporting

Nearby Weather Stations

There are no personal weather stations in this area.